createdAt,value
2019-02-14T00:01:05.561Z,103050.14
2019-02-14T00:03:35.239Z,103054.45
2019-02-14T00:06:05.354Z,103057.47
2019-02-14T00:08:35.024Z,103050.58
2019-02-14T00:11:04.761Z,103049.72
2019-02-14T00:13:34.429Z,103045.86
2019-02-14T00:16:05.105Z,103043.28
2019-02-14T00:18:34.794Z,103047.14
2019-02-14T00:21:04.994Z,103041.55
2019-02-14T00:23:34.665Z,103043.26
2019-02-14T00:26:05.142Z,103047.15
2019-02-14T00:28:34.815Z,103041.13
2019-02-14T00:31:04.876Z,103038.95
2019-02-14T00:33:34.623Z,103032.50
2019-02-14T00:36:05.166Z,103040.23
2019-02-14T00:38:34.850Z,103039.80
2019-02-14T00:41:05.077Z,103039.79
2019-02-14T00:43:34.747Z,103038.06
2019-02-14T00:46:05.923Z,103032.05
2019-02-14T00:48:36.558Z,103019.56
2019-02-14T00:51:06.483Z,103026.02
2019-02-14T00:53:36.158Z,103022.57
2019-02-14T00:56:05.869Z,103026.00
2019-02-14T00:58:35.538Z,103017.39
2019-02-14T01:01:05.214Z,103017.82
2019-02-14T01:03:34.885Z,103028.14
2019-02-14T01:06:04.792Z,103028.58
2019-02-14T01:08:34.457Z,103022.55
2019-02-14T01:11:04.968Z,103013.94
2019-02-14T01:13:34.641Z,103016.10
2019-02-14T01:16:05.325Z,103009.21
2019-02-14T01:18:34.994Z,103001.44
2019-02-14T01:21:04.914Z,103004.03
2019-02-14T01:23:34.578Z,103002.31
2019-02-14T01:26:05.008Z,103000.16
2019-02-14T01:28:35.437Z,103002.77
2019-02-14T01:31:05.259Z,103006.63
2019-02-14T01:33:34.965Z,103006.20
2019-02-14T01:36:05.310Z,103002.75
2019-02-14T01:38:35.074Z,103004.06
2019-02-14T01:41:05.193Z,103007.92
2019-02-14T01:43:35.190Z,103010.08
2019-02-14T01:46:05.015Z,103007.50
2019-02-14T01:48:34.934Z,103013.97
2019-02-14T01:51:05.121Z,103015.25
2019-02-14T01:53:35.022Z,103016.12
2019-02-14T01:56:04.775Z,103019.11
2019-02-14T01:58:34.496Z,103020.40
2019-02-14T02:01:05.337Z,103017.84
2019-02-14T02:03:35.073Z,103024.70
2019-02-14T02:06:05.228Z,103013.96
2019-02-14T02:08:34.889Z,103010.95
2019-02-14T02:11:05.500Z,103011.80
2019-02-14T02:13:35.637Z,103011.80
2019-02-14T02:16:05.375Z,103013.52
2019-02-14T02:18:37.197Z,103011.39
2019-02-14T02:21:06.870Z,103012.23
2019-02-14T02:23:36.789Z,103011.36
2019-02-14T02:26:06.488Z,103003.63
2019-02-14T02:28:36.156Z,103007.50
2019-02-14T02:31:05.921Z,103013.53
2019-02-14T02:33:35.586Z,103005.34
2019-02-14T02:36:05.400Z,103005.34
2019-02-14T02:38:35.357Z,102999.31
2019-02-14T02:41:05.089Z,103001.04
2019-02-14T02:43:34.772Z,102993.72
2019-02-14T02:46:04.859Z,102992.42
2019-02-14T02:48:34.528Z,102987.27
2019-02-14T02:51:05.090Z,102983.41
2019-02-14T02:53:35.476Z,102975.22
2019-02-14T02:56:05.670Z,102976.50
2019-02-14T02:58:35.573Z,102982.08
2019-02-14T03:01:05.295Z,102984.24
2019-02-14T03:03:35.043Z,102985.95
2019-02-14T03:06:10.480Z,102985.96
2019-02-14T03:08:36.276Z,102978.66
2019-02-14T03:11:05.977Z,102975.21
2019-02-14T03:13:35.650Z,102967.92
2019-02-14T03:16:05.326Z,102972.23
2019-02-14T03:18:34.998Z,102965.32
2019-02-14T03:21:05.235Z,102967.93
2019-02-14T03:23:35.244Z,102970.91
2019-02-14T03:26:04.909Z,102973.51
2019-02-14T03:28:34.586Z,102980.36
2019-02-14T03:31:05.078Z,102990.25
2019-02-14T03:33:34.757Z,102993.68
2019-02-14T03:36:05.596Z,103001.00
2019-02-14T03:38:35.531Z,102997.15
2019-02-14T03:41:05.371Z,102994.99
2019-02-14T03:43:35.043Z,103000.57
2019-02-14T03:46:05.032Z,103001.02
2019-02-14T03:48:34.698Z,103006.59
2019-02-14T03:51:05.440Z,103007.02
2019-02-14T03:53:35.119Z,103015.22
2019-02-14T03:56:04.812Z,103022.95
2019-02-14T03:58:34.490Z,103023.39
2019-02-14T04:01:04.915Z,103018.65
2019-02-14T04:03:35.633Z,103011.33
2019-02-14T04:06:05.377Z,103008.75
2019-02-14T04:08:35.196Z,103017.77
2019-02-14T04:11:05.512Z,103028.09
2019-02-14T04:13:35.193Z,103028.52
2019-02-14T04:16:05.365Z,103040.11
2019-02-14T04:18:35.031Z,103037.08
2019-02-14T04:21:04.904Z,103042.23
2019-02-14T04:23:34.570Z,103042.23
2019-02-14T04:26:04.993Z,103043.11
2019-02-14T04:28:34.675Z,103037.50
2019-02-14T04:31:05.251Z,103036.63
2019-02-14T04:33:34.921Z,103037.92
2019-02-14T04:36:05.001Z,103034.48
2019-02-14T04:38:34.671Z,103038.77
2019-02-14T04:41:05.222Z,103037.91
2019-02-14T04:43:34.889Z,103040.48
2019-02-14T04:46:05.609Z,103040.03
2019-02-14T04:48:35.281Z,103046.06
2019-02-14T04:51:05.234Z,103048.17
2019-02-14T04:53:34.915Z,103055.00
2019-02-14T04:56:05.185Z,103058.84
2019-02-14T04:58:34.863Z,103056.26
2019-02-14T05:01:05.034Z,103058.00
2019-02-14T05:03:34.703Z,103054.13
2019-02-14T05:06:05.353Z,103047.69
2019-02-14T05:08:35.031Z,103044.27
2019-02-14T05:11:05.186Z,103051.16
2019-02-14T05:13:34.858Z,103059.31
2019-02-14T05:16:04.896Z,103058.03
2019-02-14T05:18:34.577Z,103060.58
2019-02-14T05:21:05.525Z,103054.58
2019-02-14T05:23:35.194Z,103050.27
2019-02-14T05:26:05.192Z,103040.79
2019-02-14T05:28:34.871Z,103034.34
2019-02-14T05:31:04.875Z,103036.89
2019-02-14T05:33:34.996Z,103041.17
2019-02-14T05:36:05.090Z,103037.76
2019-02-14T05:38:34.779Z,103037.30
2019-02-14T05:41:05.233Z,103040.76
2019-02-14T05:43:34.916Z,103042.46
2019-02-14T05:46:04.738Z,103037.73
2019-02-14T05:48:34.429Z,103045.45
2019-02-14T05:51:04.922Z,103045.45
2019-02-14T05:53:34.615Z,103038.56
2019-02-14T05:56:05.238Z,103038.56
2019-02-14T05:58:35.174Z,103047.58
2019-02-14T06:01:05.310Z,103047.58
2019-02-14T06:03:35.455Z,103060.02
2019-02-14T06:06:05.139Z,103062.17
2019-02-14T06:08:34.808Z,103062.59
2019-02-14T06:11:04.985Z,103062.59
2019-02-14T06:13:34.664Z,103065.14
2019-02-14T06:16:05.260Z,103067.71
2019-02-14T06:18:34.929Z,103072.41
2019-02-14T06:21:05.625Z,103072.83
2019-02-14T06:23:35.300Z,103084.00
2019-02-14T06:26:05.022Z,103081.84
2019-02-14T06:28:34.698Z,103084.84
2019-02-14T06:31:05.112Z,103094.27
2019-02-14T06:33:34.798Z,103099.38
2019-02-14T06:36:05.114Z,103104.48
2019-02-14T06:38:34.862Z,103103.19
2019-02-14T06:41:04.731Z,103104.02
2019-02-14T06:43:34.413Z,103111.73
2019-02-14T06:46:04.967Z,103118.64
2019-02-14T06:48:34.931Z,103127.66
2019-02-14T06:51:04.964Z,103127.67
2019-02-14T06:53:34.637Z,103126.38
2019-02-14T06:56:05.161Z,103118.65
2019-02-14T06:58:35.594Z,103115.66
2019-02-14T07:01:05.310Z,103124.27
2019-02-14T07:03:35.362Z,103128.13
2019-02-14T07:06:05.215Z,103131.11
2019-02-14T07:08:34.911Z,103132.82
2019-02-14T07:11:05.208Z,103134.09
2019-02-14T07:13:35.128Z,103131.94
2019-02-14T07:16:04.872Z,103131.11
2019-02-14T07:18:34.535Z,103136.69
2019-02-14T07:21:04.980Z,103137.09
2019-02-14T07:23:34.677Z,103134.06
2019-02-14T07:26:05.112Z,103135.75
2019-02-14T07:28:34.787Z,103125.84
2019-02-14T07:31:05.201Z,103131.84
2019-02-14T07:33:34.882Z,103131.41
2019-02-14T07:36:04.775Z,103129.67
2019-02-14T07:38:34.449Z,103122.34
2019-02-14T07:41:05.049Z,103126.16
2019-02-14T07:43:34.732Z,103120.13
2019-02-14T07:46:05.280Z,103118.84
2019-02-14T07:48:35.171Z,103122.28
2019-02-14T07:51:05.018Z,103119.27
2019-02-14T07:53:34.695Z,103112.40
2019-02-14T07:56:05.031Z,103111.94
2019-02-14T07:58:34.701Z,103111.06
2019-02-14T08:01:05.276Z,103114.98
2019-02-14T08:03:34.960Z,103116.73
2019-02-14T08:06:04.935Z,103116.73
2019-02-14T08:08:34.603Z,103118.03
2019-02-14T08:11:04.994Z,103112.92
2019-02-14T08:13:34.752Z,103118.55
2019-02-14T08:16:05.189Z,103123.29
2019-02-14T08:18:34.862Z,103121.63
2019-02-14T08:21:05.504Z,103120.34
2019-02-14T08:23:35.172Z,103129.00
2019-02-14T08:26:10.676Z,103126.02
2019-02-14T08:28:36.248Z,103119.20
2019-02-14T08:31:05.958Z,103122.66
2019-02-14T08:33:35.632Z,103122.30
2019-02-14T08:36:05.297Z,103124.50
2019-02-14T08:38:34.997Z,103131.02
2019-02-14T08:41:05.143Z,103129.78
2019-02-14T08:43:34.856Z,103136.27
2019-02-14T08:46:05.015Z,103139.30
2019-02-14T08:48:34.691Z,103148.78
2019-02-14T08:51:05.109Z,103141.91
2019-02-14T08:53:35.312Z,103138.91
2019-02-14T08:56:05.358Z,103129.92
2019-02-14T08:58:35.040Z,103123.95
2019-02-14T09:01:04.955Z,103127.82
2019-02-14T09:03:34.652Z,103129.56
2019-02-14T09:06:04.925Z,103134.75
2019-02-14T09:08:34.673Z,103135.20
2019-02-14T09:11:05.008Z,103141.23
2019-02-14T09:13:34.745Z,103136.55
2019-02-14T09:16:05.469Z,103130.53
2019-02-14T09:18:35.551Z,103125.39
2019-02-14T09:21:05.479Z,103125.00
2019-02-14T09:23:35.188Z,103125.00
2019-02-14T09:26:05.065Z,103122.84
2019-02-14T09:28:34.735Z,103127.19
2019-02-14T09:31:05.343Z,103122.45
2019-02-14T09:33:35.211Z,103124.64
2019-02-14T09:36:04.897Z,103124.64
2019-02-14T09:38:34.569Z,103119.91
2019-02-14T09:41:05.234Z,103117.77
2019-02-14T09:43:35.162Z,103128.97
2019-02-14T09:46:05.400Z,103118.66
2019-02-14T09:48:35.381Z,103112.60
2019-02-14T09:51:05.147Z,103113.45
2019-02-14T09:53:35.077Z,103112.16
2019-02-14T09:56:05.027Z,103105.68
2019-02-14T09:58:34.703Z,103111.28
2019-02-14T10:01:05.244Z,103110.38
2019-02-14T10:03:34.986Z,103120.30
2019-02-14T10:06:05.072Z,103120.73
2019-02-14T10:08:34.740Z,103116.39
2019-02-14T10:11:05.109Z,103106.42
2019-02-14T10:13:35.009Z,103109.84
2019-02-14T10:16:05.197Z,103111.95
2019-02-14T10:18:34.882Z,103117.97
2019-02-14T10:21:04.731Z,103111.44
2019-02-14T10:23:34.403Z,103111.38
2019-02-14T10:26:05.114Z,103107.81
2019-02-14T10:28:34.792Z,103106.89
2019-02-14T10:31:05.201Z,103108.55
2019-02-14T10:33:34.888Z,103115.38
2019-02-14T10:36:04.985Z,103115.75
2019-02-14T10:38:34.650Z,103120.88
2019-02-14T10:41:04.976Z,103121.68
2019-02-14T10:43:34.655Z,103121.18
2019-02-14T10:46:05.040Z,103123.70
2019-02-14T10:48:34.951Z,103122.83
2019-02-14T10:51:04.768Z,103124.97
2019-02-14T10:53:34.433Z,103124.03
2019-02-14T10:56:05.149Z,103120.88
2019-02-14T10:58:35.070Z,103116.00
2019-02-14T11:01:05.378Z,103110.31
2019-02-14T11:03:35.297Z,103117.09
2019-02-14T11:06:05.207Z,103113.59
2019-02-14T11:08:34.965Z,103112.60
2019-02-14T11:11:04.857Z,103107.72
2019-02-14T11:13:34.535Z,103101.13
2019-02-14T11:16:06.220Z,103090.63
2019-02-14T11:18:43.887Z,103084.00
2019-02-14T11:21:07.683Z,103078.22
2019-02-14T11:23:37.358Z,103073.70
2019-02-14T11:26:08.680Z,103084.84
2019-02-14T11:28:38.439Z,103089.46
2019-02-14T11:31:08.115Z,103091.47
2019-02-14T11:33:38.030Z,103101.20
2019-02-14T11:36:08.675Z,103103.17
2019-02-14T11:38:40.547Z,103103.40
2019-02-14T11:41:09.963Z,103109.52
2019-02-14T11:43:39.979Z,103118.67
2019-02-14T11:46:09.596Z,103114.94
2019-02-14T11:48:39.268Z,103116.11
2019-02-14T11:51:08.935Z,103118.05
2019-02-14T11:53:38.606Z,103114.66
2019-02-14T11:56:09.959Z,103118.19
2019-02-14T11:58:39.740Z,103121.13
2019-02-14T12:01:09.553Z,103116.78
2019-02-14T12:03:39.843Z,103112.09
2019-02-14T12:06:09.526Z,103108.37
2019-02-14T12:08:39.209Z,103109.86
2019-02-14T12:11:08.880Z,103106.06
2019-02-14T12:13:39.572Z,103106.02
2019-02-14T12:16:09.305Z,103107.17
2019-02-14T12:18:38.978Z,103096.72
2019-02-14T12:21:08.640Z,103095.07
2019-02-14T12:23:38.311Z,103088.47
2019-02-14T12:26:08.018Z,103092.77
2019-02-14T12:28:37.661Z,103093.30
2019-02-14T12:31:07.343Z,103098.67
2019-02-14T12:33:37.009Z,103098.59
2019-02-14T12:36:06.663Z,103089.89
2019-02-14T12:38:36.353Z,103091.64
2019-02-14T12:41:06.032Z,103086.83
2019-02-14T12:43:35.711Z,103086.66
2019-02-14T12:46:05.380Z,103087.46
2019-02-14T12:48:35.042Z,103087.36
2019-02-14T12:51:04.955Z,103084.72
2019-02-14T12:53:34.683Z,103078.20
2019-02-14T12:56:05.142Z,103074.70
2019-02-14T12:58:34.820Z,103081.57
2019-02-14T13:01:05.222Z,103079.19
2019-02-14T13:03:35.110Z,103078.33
2019-02-14T13:06:05.044Z,103077.88
2019-02-14T13:08:34.732Z,103076.52
2019-02-14T13:11:05.167Z,103072.83
2019-02-14T13:13:34.870Z,103067.59
2019-02-14T13:16:05.046Z,103062.80
2019-02-14T13:18:34.808Z,103057.83
2019-02-14T13:21:05.200Z,103054.53
2019-02-14T13:23:34.884Z,103054.23
2019-02-14T13:26:05.472Z,103047.55
2019-02-14T13:28:35.298Z,103058.27
2019-02-14T13:31:05.036Z,103054.73
2019-02-14T13:33:34.714Z,103051.72
2019-02-14T13:36:05.840Z,103061.63
2019-02-14T13:38:35.872Z,103050.11
2019-02-14T13:41:05.673Z,103047.16
2019-02-14T13:43:35.581Z,103046.80
2019-02-14T13:46:05.414Z,103044.99
2019-02-14T13:48:35.800Z,103046.49
2019-02-14T13:51:05.499Z,103050.58
2019-02-14T13:53:35.153Z,103045.59
2019-02-14T13:56:05.882Z,103041.89
2019-02-14T13:58:35.539Z,103046.72
2019-02-14T14:01:05.510Z,103043.01
2019-02-14T14:03:35.226Z,103042.67
2019-02-14T14:06:05.012Z,103041.06
2019-02-14T14:08:34.702Z,103041.42
2019-02-14T14:11:05.101Z,103038.00
2019-02-14T14:13:34.778Z,103038.87
2019-02-14T14:16:04.900Z,103035.83
2019-02-14T14:18:34.566Z,103035.83
2019-02-14T14:21:04.918Z,103030.21
2019-02-14T14:23:34.579Z,103031.81
2019-02-14T14:26:05.301Z,103029.44
2019-02-14T14:28:34.971Z,103024.34
2019-02-14T14:31:04.721Z,103022.97
2019-02-14T14:33:34.386Z,103018.97
2019-02-14T14:36:04.949Z,103013.64
2019-02-14T14:38:34.629Z,103014.78
2019-02-14T14:41:05.094Z,103011.66
2019-02-14T14:43:43.990Z,103009.83
2019-02-14T14:46:22.727Z,103005.91
2019-02-14T14:48:52.395Z,103004.59
2019-02-14T14:51:22.160Z,102997.05
2019-02-14T14:53:51.841Z,102999.09
2019-02-14T14:56:21.508Z,102997.50
2019-02-14T14:58:51.192Z,103000.34
2019-02-14T15:01:20.856Z,102994.72
2019-02-14T15:03:52.110Z,102988.17
2019-02-14T15:06:21.959Z,102986.37
2019-02-14T15:08:51.627Z,102975.61
2019-02-14T15:11:21.368Z,102982.22
2019-02-14T15:13:51.536Z,102978.45
2019-02-14T15:16:21.175Z,102983.30
2019-02-14T15:18:50.845Z,102977.20
2019-02-14T15:21:20.503Z,102973.78
2019-02-14T15:23:50.424Z,102972.12
2019-02-14T15:26:20.109Z,102970.36
2019-02-14T15:28:49.793Z,102966.50
2019-02-14T15:31:19.464Z,102969.98
2019-02-14T15:33:49.142Z,102969.98
2019-02-14T15:36:18.826Z,102972.69
2019-02-14T15:38:48.539Z,102962.05
2019-02-14T15:41:18.212Z,102970.29
2019-02-14T15:43:48.065Z,102970.29
2019-02-14T15:46:18.151Z,102967.22
2019-02-14T15:48:48.632Z,102964.38
2019-02-14T15:51:20.033Z,102962.30
2019-02-14T15:53:49.896Z,102966.40
2019-02-14T15:56:19.597Z,102968.78
2019-02-14T15:58:49.391Z,102969.73
2019-02-14T16:01:19.125Z,102964.23
2019-02-14T16:03:48.979Z,102972.23
2019-02-14T16:06:18.641Z,102968.60
2019-02-14T16:08:48.924Z,102968.92
2019-02-14T16:11:18.839Z,102965.77
2019-02-14T16:13:48.581Z,102958.95
2019-02-14T16:16:20.147Z,102963.99
2019-02-14T16:18:49.689Z,102955.92
2019-02-14T16:21:19.365Z,102964.94
2019-02-14T16:23:50.957Z,102967.44
2019-02-14T16:26:20.423Z,102961.30
2019-02-14T16:28:50.416Z,102963.72
2019-02-14T16:31:20.184Z,102966.46
2019-02-14T16:33:49.848Z,102963.28
2019-02-14T16:36:20.778Z,102963.52
2019-02-14T16:38:51.965Z,102957.70
2019-02-14T16:41:21.629Z,102968.00
2019-02-14T16:43:51.307Z,102969.27
2019-02-14T16:46:20.982Z,102968.34
2019-02-14T16:48:50.932Z,102967.28
2019-02-14T16:51:20.624Z,102967.86
2019-02-14T16:53:50.295Z,102971.12
2019-02-14T16:56:19.987Z,102964.34
2019-02-14T16:58:49.919Z,102962.37
2019-02-14T17:01:19.601Z,102965.23
2019-02-14T17:03:49.293Z,102966.81
2019-02-14T17:06:18.963Z,102958.52
2019-02-14T17:08:48.662Z,102961.38
2019-02-14T17:11:18.409Z,102962.48
2019-02-14T17:13:48.112Z,102966.63
2019-02-14T17:16:17.816Z,102968.17
2019-02-14T17:18:47.506Z,102962.72
2019-02-14T17:21:17.181Z,102965.55
2019-02-14T17:23:47.043Z,102965.42
2019-02-14T17:26:16.729Z,102977.36
2019-02-14T17:28:46.398Z,102972.40
2019-02-14T17:31:16.187Z,102977.34
2019-02-14T17:33:45.885Z,102966.73
2019-02-14T17:36:15.797Z,102972.09
2019-02-14T17:38:45.464Z,102967.95
2019-02-14T17:41:15.137Z,102978.95
2019-02-14T17:43:44.816Z,102972.23
2019-02-14T17:46:14.537Z,102966.81
2019-02-14T17:48:44.214Z,102970.48
2019-02-14T17:51:14.912Z,102965.89
2019-02-14T17:53:44.609Z,102969.53
2019-02-14T17:56:14.524Z,102975.75
2019-02-14T17:58:44.202Z,102972.87
2019-02-14T18:01:13.901Z,102982.06
2019-02-14T18:03:43.615Z,102975.25
2019-02-14T18:06:13.285Z,102973.20
2019-02-14T18:08:43.018Z,102968.56
2019-02-14T18:11:12.785Z,102967.38
2019-02-14T18:13:42.447Z,102963.99
2019-02-14T18:16:12.112Z,102971.03
2019-02-14T18:18:42.378Z,102964.18
2019-02-14T18:21:12.053Z,102970.75
2019-02-14T18:23:42.127Z,102971.28
2019-02-14T18:26:11.792Z,102971.80
2019-02-14T18:28:41.467Z,102966.70
2019-02-14T18:31:11.171Z,102967.61
2019-02-14T18:33:40.860Z,102962.48
2019-02-14T18:36:10.614Z,102971.20
2019-02-14T18:38:40.293Z,102965.66
2019-02-14T18:41:09.986Z,102973.06
2019-02-14T18:43:39.658Z,102969.23
2019-02-14T18:46:09.430Z,102974.48
2019-02-14T18:48:39.123Z,102969.36
2019-02-14T18:51:08.930Z,102965.53
2019-02-14T18:53:38.644Z,102967.33
2019-02-14T18:56:08.377Z,102966.98
2019-02-14T18:58:38.075Z,102968.35
2019-02-14T19:01:07.882Z,102968.83
2019-02-14T19:03:37.576Z,102970.58
2019-02-14T19:06:07.554Z,102974.11
2019-02-14T19:08:37.220Z,102965.98
2019-02-14T19:11:14.952Z,102970.36
2019-02-14T19:13:38.564Z,102969.55
2019-02-14T19:16:08.310Z,102970.44
2019-02-14T19:18:38.069Z,102972.22
2019-02-14T19:21:07.813Z,102970.09
2019-02-14T19:23:38.264Z,102971.00
2019-02-14T19:26:08.095Z,102967.16
2019-02-14T19:28:38.038Z,102970.62
2019-02-14T19:31:07.798Z,102965.92
2019-02-14T19:33:37.481Z,102966.77
2019-02-14T19:36:07.169Z,102961.19
2019-02-14T19:38:37.140Z,102974.98
2019-02-14T19:41:06.802Z,102964.69
2019-02-14T19:43:37.706Z,102967.27
2019-02-14T19:46:07.413Z,102955.24
2019-02-14T19:48:37.327Z,102951.79
2019-02-14T19:51:07.032Z,102958.69
2019-02-14T19:53:36.687Z,102957.88
2019-02-14T19:56:06.363Z,102954.86
2019-02-14T19:58:36.327Z,102953.14
2019-02-14T20:01:06.181Z,102950.16
2019-02-14T20:03:35.883Z,102945.86
2019-02-14T20:06:05.826Z,102943.71
2019-02-14T20:08:35.788Z,102937.69
2019-02-14T20:11:05.477Z,102945.88
2019-02-14T20:13:35.453Z,102941.16
2019-02-14T20:16:05.268Z,102938.14
2019-02-14T20:18:34.956Z,102936.86
2019-02-14T20:21:05.358Z,102938.60
2019-02-14T20:23:36.063Z,102940.36
2019-02-14T20:26:06.696Z,102936.05
2019-02-14T20:28:36.385Z,102937.34
2019-02-14T20:31:06.059Z,102933.02
2019-02-14T20:33:35.752Z,102933.89
2019-02-14T20:36:05.446Z,102932.17
2019-02-14T20:38:35.212Z,102934.77
2019-02-14T20:41:05.038Z,102933.03
2019-02-14T20:43:34.752Z,102926.59
2019-02-14T20:46:05.237Z,102933.91
2019-02-14T20:48:36.157Z,102934.77
2019-02-14T20:51:06.083Z,102939.97
2019-02-14T20:53:35.672Z,102936.09
2019-02-14T20:56:05.424Z,102933.50
2019-02-14T20:58:35.111Z,102930.93
2019-02-14T21:01:08.398Z,102922.31
2019-02-14T21:03:38.860Z,102929.19
2019-02-14T21:06:08.577Z,102926.20
2019-02-14T21:08:38.430Z,102921.02
2019-02-14T21:11:08.144Z,102924.91
2019-02-14T21:13:37.818Z,102932.22
2019-02-14T21:16:07.610Z,102921.04
2019-02-14T21:18:37.345Z,102923.60
2019-02-14T21:21:07.018Z,102922.32
2019-02-14T21:23:36.705Z,102925.77
2019-02-14T21:26:06.709Z,102924.48
2019-02-14T21:28:36.487Z,102924.03
2019-02-14T21:31:06.251Z,102921.02
2019-02-14T21:33:36.258Z,102921.86
2019-02-14T21:36:06.140Z,102928.33
2019-02-14T21:38:36.037Z,102921.02
2019-02-14T21:41:05.786Z,102921.02
2019-02-14T21:43:37.529Z,102920.58
2019-02-14T21:46:07.914Z,102919.72
2019-02-14T21:48:37.682Z,102917.56
2019-02-14T21:51:07.383Z,102918.84
2019-02-14T21:53:38.113Z,102920.55
2019-02-14T21:56:07.794Z,102917.11
2019-02-14T21:58:37.726Z,102921.83
2019-02-14T22:01:07.630Z,102916.67
2019-02-14T22:03:37.389Z,102914.95
2019-02-14T22:06:07.049Z,102922.27
2019-02-14T22:08:37.225Z,102923.54
2019-02-14T22:11:06.918Z,102919.64
2019-02-14T22:13:38.612Z,102914.05
2019-02-14T22:16:08.389Z,102911.47
2019-02-14T22:18:39.040Z,102909.75
2019-02-14T22:21:08.725Z,102907.63
2019-02-14T22:23:38.756Z,102905.48
2019-02-14T22:26:10.538Z,102912.32
2019-02-14T22:28:40.253Z,102910.62
2019-02-14T22:31:10.042Z,102911.88
2019-02-14T22:33:39.816Z,102906.73
2019-02-14T22:36:09.773Z,102909.31
2019-02-14T22:38:39.455Z,102912.28
2019-02-14T22:41:09.143Z,102910.55
2019-02-14T22:43:38.815Z,102910.98
2019-02-14T22:46:08.584Z,102906.66
2019-02-14T22:48:38.661Z,102905.80
2019-02-14T22:51:09.340Z,102908.34
2019-02-14T22:53:39.036Z,102907.93
2019-02-14T22:56:08.736Z,102909.64
2019-02-14T22:58:38.438Z,102906.61
2019-02-14T23:01:08.360Z,102916.47
2019-02-14T23:03:38.229Z,102913.02
2019-02-14T23:06:07.910Z,102912.61
2019-02-14T23:08:37.866Z,102907.45
2019-02-14T23:11:07.879Z,102907.00
2019-02-14T23:13:37.608Z,102905.72
2019-02-14T23:16:07.308Z,102905.69
2019-02-14T23:18:36.995Z,102903.95
2019-02-14T23:21:06.915Z,102906.11
2019-02-14T23:23:37.286Z,102915.13
2019-02-14T23:26:06.961Z,102918.57
2019-02-14T23:28:36.813Z,102911.27
2019-02-14T23:31:06.610Z,102913.39
2019-02-14T23:33:36.274Z,102907.78
2019-02-14T23:36:05.967Z,102916.38
2019-02-14T23:38:35.665Z,102915.93
2019-02-14T23:41:05.342Z,102915.52
2019-02-14T23:43:36.277Z,102912.91
2019-02-14T23:46:05.960Z,102911.61
2019-02-14T23:48:35.916Z,102915.89
2019-02-14T23:51:05.607Z,102911.13
2019-02-14T23:53:35.541Z,102920.55
2019-02-14T23:56:05.232Z,102922.67
2019-02-14T23:58:35.154Z,102917.94
